sensor_id;sensor_type;location;lat;lon;timestamp;temperature;humidity
20380;DHT22;10349;48.666;8.948;2023-04-01T00:00:59;6.80;99.90
20380;DHT22;10349;48.666;8.948;2023-04-01T00:03:26;6.80;99.90
20380;DHT22;10349;48.666;8.948;2023-04-01T00:05:53;6.80;99.90
20380;DHT22;10349;48.666;8.948;2023-04-01T00:08:20;6.80;99.90
20380;DHT22;10349;48.666;8.948;2023-04-01T00:10:46;6.80;99.90
20380;DHT22;10349;48.666;8.948;2023-04-01T00:13:11;6.90;99.90
20380;DHT22;10349;48.666;8.948;2023-04-01T00:15:38;6.90;99.90
20380;DHT22;10349;48.666;8.948;2023-04-01T00:18:03;6.80;99.90
20380;DHT22;10349;48.666;8.948;2023-04-01T00:20:30;6.80;99.90
20380;DHT22;10349;48.666;8.948;2023-04-01T00:22:56;6.90;99.90
20380;DHT22;10349;48.666;8.948;2023-04-01T00:25:22;6.90;99.90
20380;DHT22;10349;48.666;8.948;2023-04-01T00:27:48;6.90;99.90
20380;DHT22;10349;48.666;8.948;2023-04-01T00:30:14;6.90;99.90
20380;DHT22;10349;48.666;8.948;2023-04-01T00:32:40;6.90;99.90
20380;DHT22;10349;48.666;8.948;2023-04-01T00:35:07;6.90;99.90
20380;DHT22;10349;48.666;8.948;2023-04-01T00:37:37;6.90;99.90
20380;DHT22;10349;48.666;8.948;2023-04-01T00:40:06;6.90;99.90
20380;DHT22;10349;48.666;8.948;2023-04-01T00:42:32;6.90;99.90
20380;DHT22;10349;48.666;8.948;2023-04-01T00:44:58;6.90;99.90
20380;DHT22;10349;48.666;8.948;2023-04-01T00:47:25;6.90;99.90
20380;DHT22;10349;48.666;8.948;2023-04-01T00:49:53;6.90;99.90
20380;DHT22;10349;48.666;8.948;2023-04-01T00:52:22;6.90;99.90
20380;DHT22;10349;48.666;8.948;2023-04-01T00:54:52;6.90;99.90
20380;DHT22;10349;48.666;8.948;2023-04-01T00:57:25;6.90;99.90
20380;DHT22;10349;48.666;8.948;2023-04-01T00:59:54;6.90;99.90
20380;DHT22;10349;48.666;8.948;2023-04-01T01:02:20;6.90;99.90
20380;DHT22;10349;48.666;8.948;2023-04-01T01:04:46;6.80;99.90
20380;DHT22;10349;48.666;8.948;2023-04-01T01:15:36;6.80;99.90
20380;DHT22;10349;48.666;8.948;2023-04-01T01:18:11;6.80;99.90
20380;DHT22;10349;48.666;8.948;2023-04-01T01:27:01;6.80;99.90
20380;DHT22;10349;48.666;8.948;2023-04-01T01:32:55;6.80;99.90
20380;DHT22;10349;48.666;8.948;2023-04-01T01:35:24;6.90;99.90
20380;DHT22;10349;48.666;8.948;2023-04-01T01:37:56;6.90;99.90
20380;DHT22;10349;48.666;8.948;2023-04-01T01:40:24;6.90;99.90
20380;DHT22;10349;48.666;8.948;2023-04-01T01:42:56;6.90;99.90
20380;DHT22;10349;48.666;8.948;2023-04-01T01:45:25;6.90;99.90
20380;DHT22;10349;48.666;8.948;2023-04-01T01:47:51;6.90;99.90
20380;DHT22;10349;48.666;8.948;2023-04-01T01:50:18;6.80;99.90
20380;DHT22;10349;48.666;8.948;2023-04-01T01:52:44;6.80;99.90
20380;DHT22;10349;48.666;8.948;2023-04-01T01:55:39;6.70;99.90
20380;DHT22;10349;48.666;8.948;2023-04-01T01:58:19;6.80;99.90
20380;DHT22;10349;48.666;8.948;2023-04-01T02:00:54;6.70;99.90
20380;DHT22;10349;48.666;8.948;2023-04-01T02:03:23;6.80;99.90
20380;DHT22;10349;48.666;8.948;2023-04-01T02:05:52;6.70;99.90
20380;DHT22;10349;48.666;8.948;2023-04-01T02:08:30;6.70;99.90
20380;DHT22;10349;48.666;8.948;2023-04-01T02:11:04;6.70;99.90
20380;DHT22;10349;48.666;8.948;2023-04-01T02:13:48;6.70;99.90
20380;DHT22;10349;48.666;8.948;2023-04-01T02:16:21;6.70;99.90
20380;DHT22;10349;48.666;8.948;2023-04-01T02:18:51;6.60;99.90
20380;DHT22;10349;48.666;8.948;2023-04-01T02:21:20;6.60;99.90
20380;DHT22;10349;48.666;8.948;2023-04-01T02:23:47;6.60;99.90
20380;DHT22;10349;48.666;8.948;2023-04-01T02:26:14;6.60;99.90
20380;DHT22;10349;48.666;8.948;2023-04-01T02:28:41;6.60;99.90
20380;DHT22;10349;48.666;8.948;2023-04-01T02:31:10;6.60;99.90
20380;DHT22;10349;48.666;8.948;2023-04-01T02:33:37;6.50;99.90
20380;DHT22;10349;48.666;8.948;2023-04-01T02:36:04;6.60;99.90
20380;DHT22;10349;48.666;8.948;2023-04-01T02:38:31;6.60;99.90
20380;DHT22;10349;48.666;8.948;2023-04-01T02:40:59;6.60;99.90
20380;DHT22;10349;48.666;8.948;2023-04-01T02:43:26;6.50;99.90
20380;DHT22;10349;48.666;8.948;2023-04-01T02:45:53;6.50;99.90
20380;DHT22;10349;48.666;8.948;2023-04-01T02:48:18;6.40;99.90
20380;DHT22;10349;48.666;8.948;2023-04-01T02:50:44;6.40;99.90
20380;DHT22;10349;48.666;8.948;2023-04-01T02:53:10;6.40;99.90
20380;DHT22;10349;48.666;8.948;2023-04-01T02:55:36;6.40;99.90
20380;DHT22;10349;48.666;8.948;2023-04-01T02:58:02;6.40;99.90
20380;DHT22;10349;48.666;8.948;2023-04-01T03:00:29;6.40;99.90
20380;DHT22;10349;48.666;8.948;2023-04-01T03:02:55;6.40;99.90
20380;DHT22;10349;48.666;8.948;2023-04-01T03:05:23;6.40;99.90
20380;DHT22;10349;48.666;8.948;2023-04-01T03:07:49;6.40;99.90
20380;DHT22;10349;48.666;8.948;2023-04-01T03:10:15;6.40;99.90
20380;DHT22;10349;48.666;8.948;2023-04-01T03:12:40;6.40;99.90
20380;DHT22;10349;48.666;8.948;2023-04-01T03:15:06;6.30;99.90
20380;DHT22;10349;48.666;8.948;2023-04-01T03:17:32;6.30;99.90
20380;DHT22;10349;48.666;8.948;2023-04-01T03:19:58;6.40;99.90
20380;DHT22;10349;48.666;8.948;2023-04-01T03:22:24;6.40;99.90
20380;DHT22;10349;48.666;8.948;2023-04-01T03:24:50;6.50;99.90
20380;DHT22;10349;48.666;8.948;2023-04-01T03:27:15;6.50;99.90
20380;DHT22;10349;48.666;8.948;2023-04-01T03:29:41;6.50;99.90
20380;DHT22;10349;48.666;8.948;2023-04-01T03:32:08;6.50;99.90
20380;DHT22;10349;48.666;8.948;2023-04-01T03:34:33;6.50;99.90
20380;DHT22;10349;48.666;8.948;2023-04-01T03:36:59;6.50;99.90
20380;DHT22;10349;48.666;8.948;2023-04-01T03:39:25;6.50;99.90
20380;DHT22;10349;48.666;8.948;2023-04-01T03:41:51;6.50;99.90
20380;DHT22;10349;48.666;8.948;2023-04-01T03:44:16;6.50;99.90
20380;DHT22;10349;48.666;8.948;2023-04-01T03:46:45;6.50;99.90
20380;DHT22;10349;48.666;8.948;2023-04-01T03:49:11;6.60;99.90
20380;DHT22;10349;48.666;8.948;2023-04-01T03:51:42;6.50;99.90
20380;DHT22;10349;48.666;8.948;2023-04-01T03:54:09;6.60;99.90
20380;DHT22;10349;48.666;8.948;2023-04-01T03:56:36;6.50;99.90
20380;DHT22;10349;48.666;8.948;2023-04-01T03:59:04;6.50;99.90
20380;DHT22;10349;48.666;8.948;2023-04-01T04:01:31;6.40;99.90
20380;DHT22;10349;48.666;8.948;2023-04-01T04:03:57;6.40;99.90
20380;DHT22;10349;48.666;8.948;2023-04-01T04:06:24;6.30;99.90
20380;DHT22;10349;48.666;8.948;2023-04-01T04:08:51;6.20;99.90
20380;DHT22;10349;48.666;8.948;2023-04-01T04:11:17;6.10;99.90
20380;DHT22;10349;48.666;8.948;2023-04-01T04:13:43;6.10;99.90
20380;DHT22;10349;48.666;8.948;2023-04-01T04:16:10;6.00;99.90
20380;DHT22;10349;48.666;8.948;2023-04-01T04:18:39;5.90;99.90
20380;DHT22;10349;48.666;8.948;2023-04-01T04:21:05;5.80;99.90
20380;DHT22;10349;48.666;8.948;2023-04-01T04:23:31;5.80;99.90
20380;DHT22;10349;48.666;8.948;2023-04-01T04:26:01;5.80;99.90
20380;DHT22;10349;48.666;8.948;2023-04-01T04:28:28;5.70;99.90
20380;DHT22;10349;48.666;8.948;2023-04-01T04:30:56;5.70;99.90
20380;DHT22;10349;48.666;8.948;2023-04-01T04:33:23;5.70;99.90
20380;DHT22;10349;48.666;8.948;2023-04-01T04:35:50;5.70;99.90
20380;DHT22;10349;48.666;8.948;2023-04-01T04:38:16;5.70;99.90
20380;DHT22;10349;48.666;8.948;2023-04-01T04:40:43;5.70;99.90
20380;DHT22;10349;48.666;8.948;2023-04-01T04:43:11;5.70;99.90
20380;DHT22;10349;48.666;8.948;2023-04-01T04:45:38;5.70;99.90
20380;DHT22;10349;48.666;8.948;2023-04-01T04:48:04;5.80;99.90
20380;DHT22;10349;48.666;8.948;2023-04-01T04:50:30;5.80;99.90
20380;DHT22;10349;48.666;8.948;2023-04-01T04:52:56;5.80;99.90
20380;DHT22;10349;48.666;8.948;2023-04-01T04:55:22;5.90;99.90
20380;DHT22;10349;48.666;8.948;2023-04-01T04:57:57;5.90;99.90
20380;DHT22;10349;48.666;8.948;2023-04-01T05:00:22;6.00;99.90
20380;DHT22;10349;48.666;8.948;2023-04-01T05:02:55;6.00;99.90
20380;DHT22;10349;48.666;8.948;2023-04-01T05:05:20;6.00;99.90
20380;DHT22;10349;48.666;8.948;2023-04-01T05:07:46;6.10;99.90
20380;DHT22;10349;48.666;8.948;2023-04-01T05:10:12;6.20;99.90
20380;DHT22;10349;48.666;8.948;2023-04-01T05:12:38;6.20;99.90
20380;DHT22;10349;48.666;8.948;2023-04-01T05:15:06;6.20;99.90
20380;DHT22;10349;48.666;8.948;2023-04-01T05:17:32;6.20;99.90
20380;DHT22;10349;48.666;8.948;2023-04-01T05:19:59;6.30;99.90
20380;DHT22;10349;48.666;8.948;2023-04-01T05:22:25;6.30;99.90
20380;DHT22;10349;48.666;8.948;2023-04-01T05:24:51;6.30;99.90
20380;DHT22;10349;48.666;8.948;2023-04-01T05:27:17;6.40;99.90
20380;DHT22;10349;48.666;8.948;2023-04-01T05:29:43;6.40;99.90
20380;DHT22;10349;48.666;8.948;2023-04-01T05:32:25;6.50;99.90
20380;DHT22;10349;48.666;8.948;2023-04-01T05:34:52;6.50;99.90
20380;DHT22;10349;48.666;8.948;2023-04-01T05:37:18;6.50;99.90
20380;DHT22;10349;48.666;8.948;2023-04-01T05:39:44;6.60;99.90
20380;DHT22;10349;48.666;8.948;2023-04-01T05:42:10;6.50;99.90
20380;DHT22;10349;48.666;8.948;2023-04-01T05:44:36;6.50;99.90
20380;DHT22;10349;48.666;8.948;2023-04-01T05:47:03;6.50;99.90
20380;DHT22;10349;48.666;8.948;2023-04-01T05:49:29;6.60;99.90
20380;DHT22;10349;48.666;8.948;2023-04-01T05:51:56;6.60;99.90
20380;DHT22;10349;48.666;8.948;2023-04-01T05:54:22;6.60;99.90
20380;DHT22;10349;48.666;8.948;2023-04-01T05:56:48;6.70;99.90
20380;DHT22;10349;48.666;8.948;2023-04-01T05:59:14;6.70;99.90
20380;DHT22;10349;48.666;8.948;2023-04-01T06:01:40;6.80;99.90
20380;DHT22;10349;48.666;8.948;2023-04-01T06:04:06;6.80;99.90
20380;DHT22;10349;48.666;8.948;2023-04-01T06:06:32;6.90;99.90
20380;DHT22;10349;48.666;8.948;2023-04-01T06:09:29;6.80;99.90
20380;DHT22;10349;48.666;8.948;2023-04-01T06:26:17;6.90;99.90
20380;DHT22;10349;48.666;8.948;2023-04-01T06:29:08;6.90;99.90
20380;DHT22;10349;48.666;8.948;2023-04-01T06:31:54;6.90;99.90
20380;DHT22;10349;48.666;8.948;2023-04-01T06:37:20;7.00;99.90
20380;DHT22;10349;48.666;8.948;2023-04-01T06:42:36;7.00;99.90
20380;DHT22;10349;48.666;8.948;2023-04-01T06:45:23;7.00;99.90
20380;DHT22;10349;48.666;8.948;2023-04-01T06:54:33;7.00;99.90
20380;DHT22;10349;48.666;8.948;2023-04-01T06:57:31;7.00;99.90
20380;DHT22;10349;48.666;8.948;2023-04-01T07:00:00;7.00;99.90
20380;DHT22;10349;48.666;8.948;2023-04-01T07:04:56;7.00;99.90
20380;DHT22;10349;48.666;8.948;2023-04-01T07:07:32;7.00;99.90
20380;DHT22;10349;48.666;8.948;2023-04-01T07:10:09;7.10;99.90
20380;DHT22;10349;48.666;8.948;2023-04-01T07:13:01;7.10;99.90
20380;DHT22;10349;48.666;8.948;2023-04-01T07:16:21;7.10;99.90
20380;DHT22;10349;48.666;8.948;2023-04-01T07:22:43;7.10;99.90
20380;DHT22;10349;48.666;8.948;2023-04-01T07:25:07;7.20;99.90
20380;DHT22;10349;48.666;8.948;2023-04-01T07:27:36;7.10;99.90
20380;DHT22;10349;48.666;8.948;2023-04-01T07:30:06;7.20;99.90
20380;DHT22;10349;48.666;8.948;2023-04-01T07:32:45;7.20;99.90
20380;DHT22;10349;48.666;8.948;2023-04-01T07:35:34;7.20;99.90
20380;DHT22;10349;48.666;8.948;2023-04-01T07:40:49;7.20;99.90
20380;DHT22;10349;48.666;8.948;2023-04-01T07:46:38;7.30;99.90
20380;DHT22;10349;48.666;8.948;2023-04-01T07:49:40;7.30;99.90
20380;DHT22;10349;48.666;8.948;2023-04-01T07:52:12;7.30;99.90
20380;DHT22;10349;48.666;8.948;2023-04-01T07:55:15;7.40;99.90
20380;DHT22;10349;48.666;8.948;2023-04-01T07:58:16;7.30;99.90
20380;DHT22;10349;48.666;8.948;2023-04-01T08:00:50;7.40;99.90
20380;DHT22;10349;48.666;8.948;2023-04-01T08:03:37;7.40;99.90
20380;DHT22;10349;48.666;8.948;2023-04-01T08:20:41;7.40;99.90
20380;DHT22;10349;48.666;8.948;2023-04-01T08:23:17;7.40;99.90
20380;DHT22;10349;48.666;8.948;2023-04-01T08:26:00;7.40;99.90
20380;DHT22;10349;48.666;8.948;2023-04-01T08:28:39;7.40;99.90
20380;DHT22;10349;48.666;8.948;2023-04-01T08:31:36;7.40;99.90
20380;DHT22;10349;48.666;8.948;2023-04-01T08:34:04;7.40;99.90
20380;DHT22;10349;48.666;8.948;2023-04-01T08:36:37;7.40;99.90
20380;DHT22;10349;48.666;8.948;2023-04-01T08:39:29;7.30;99.90
20380;DHT22;10349;48.666;8.948;2023-04-01T08:50:12;7.30;99.90
20380;DHT22;10349;48.666;8.948;2023-04-01T08:53:24;7.30;99.90
20380;DHT22;10349;48.666;8.948;2023-04-01T08:56:14;7.40;99.90
20380;DHT22;10349;48.666;8.948;2023-04-01T09:01:46;7.50;99.90
20380;DHT22;10349;48.666;8.948;2023-04-01T09:05:06;7.60;99.90
20380;DHT22;10349;48.666;8.948;2023-04-01T09:17:04;8.00;99.90
20380;DHT22;10349;48.666;8.948;2023-04-01T09:22:22;8.00;99.90
20380;DHT22;10349;48.666;8.948;2023-04-01T09:25:15;8.10;99.90
20380;DHT22;10349;48.666;8.948;2023-04-01T09:33:17;8.20;99.90
20380;DHT22;10349;48.666;8.948;2023-04-01T09:35:50;8.10;99.90
20380;DHT22;10349;48.666;8.948;2023-04-01T09:38:34;8.00;99.90
20380;DHT22;10349;48.666;8.948;2023-04-01T09:44:18;8.00;99.90
20380;DHT22;10349;48.666;8.948;2023-04-01T09:52:55;8.00;99.90
20380;DHT22;10349;48.666;8.948;2023-04-01T10:02:27;7.90;99.90
20380;DHT22;10349;48.666;8.948;2023-04-01T10:05:40;8.00;99.90
20380;DHT22;10349;48.666;8.948;2023-04-01T10:25:44;8.00;99.90
20380;DHT22;10349;48.666;8.948;2023-04-01T10:49:53;8.80;99.90
20380;DHT22;10349;48.666;8.948;2023-04-01T10:52:34;8.80;99.90
20380;DHT22;10349;48.666;8.948;2023-04-01T10:56:00;8.80;99.90
20380;DHT22;10349;48.666;8.948;2023-04-01T10:59:22;8.80;99.90
20380;DHT22;10349;48.666;8.948;2023-04-01T11:02:19;8.80;99.90
20380;DHT22;10349;48.666;8.948;2023-04-01T11:05:55;8.80;99.90
20380;DHT22;10349;48.666;8.948;2023-04-01T11:14:35;9.10;99.90
20380;DHT22;10349;48.666;8.948;2023-04-01T11:17:37;9.10;99.90
20380;DHT22;10349;48.666;8.948;2023-04-01T11:32:31;9.10;99.90
20380;DHT22;10349;48.666;8.948;2023-04-01T11:35:32;9.10;99.90
20380;DHT22;10349;48.666;8.948;2023-04-01T11:44:20;9.10;99.90
20380;DHT22;10349;48.666;8.948;2023-04-01T11:47:42;9.10;99.90
20380;DHT22;10349;48.666;8.948;2023-04-01T11:55:59;9.30;99.90
20380;DHT22;10349;48.666;8.948;2023-04-01T12:01:33;9.40;99.90
20380;DHT22;10349;48.666;8.948;2023-04-01T12:04:22;9.50;99.90
20380;DHT22;10349;48.666;8.948;2023-04-01T12:10:39;9.50;99.90
20380;DHT22;10349;48.666;8.948;2023-04-01T12:12:46;9.60;99.90
20380;DHT22;10349;48.666;8.948;2023-04-01T12:15:30;9.60;99.90
20380;DHT22;10349;48.666;8.948;2023-04-01T12:21:05;9.70;99.90
20380;DHT22;10349;48.666;8.948;2023-04-01T12:32:17;9.10;99.90
20380;DHT22;10349;48.666;8.948;2023-04-01T12:35:21;9.00;99.90
20380;DHT22;10349;48.666;8.948;2023-04-01T12:41:15;9.10;99.90
20380;DHT22;10349;48.666;8.948;2023-04-01T12:49:20;9.40;99.90
20380;DHT22;10349;48.666;8.948;2023-04-01T13:14:50;9.40;99.90
20380;DHT22;10349;48.666;8.948;2023-04-01T13:17:20;9.40;99.90
20380;DHT22;10349;48.666;8.948;2023-04-01T13:19:58;9.50;99.90
20380;DHT22;10349;48.666;8.948;2023-04-01T13:25:44;9.70;99.90
20380;DHT22;10349;48.666;8.948;2023-04-01T13:28:22;9.60;99.90
20380;DHT22;10349;48.666;8.948;2023-04-01T13:31:05;9.40;99.90
20380;DHT22;10349;48.666;8.948;2023-04-01T13:36:28;9.50;99.90
20380;DHT22;10349;48.666;8.948;2023-04-01T13:42:02;9.50;99.90
20380;DHT22;10349;48.666;8.948;2023-04-01T13:44:38;9.60;99.90
20380;DHT22;10349;48.666;8.948;2023-04-01T13:58:04;9.50;99.90
20380;DHT22;10349;48.666;8.948;2023-04-01T14:08:17;9.60;99.90
20380;DHT22;10349;48.666;8.948;2023-04-01T14:11:10;9.50;99.90
20380;DHT22;10349;48.666;8.948;2023-04-01T14:13:47;9.50;99.90
20380;DHT22;10349;48.666;8.948;2023-04-01T14:16:23;9.50;99.90
20380;DHT22;10349;48.666;8.948;2023-04-01T14:21:46;9.40;99.90
20380;DHT22;10349;48.666;8.948;2023-04-01T14:32:15;9.50;99.90
20380;DHT22;10349;48.666;8.948;2023-04-01T14:34:55;9.50;99.90
20380;DHT22;10349;48.666;8.948;2023-04-01T14:49:04;9.30;99.90
20380;DHT22;10349;48.666;8.948;2023-04-01T14:51:40;9.30;99.90
20380;DHT22;10349;48.666;8.948;2023-04-01T14:54:30;9.30;99.90
20380;DHT22;10349;48.666;8.948;2023-04-01T14:57:29;9.20;99.90
20380;DHT22;10349;48.666;8.948;2023-04-01T15:08:02;9.30;99.90
20380;DHT22;10349;48.666;8.948;2023-04-01T15:13:42;9.40;99.90
20380;DHT22;10349;48.666;8.948;2023-04-01T15:25:00;9.50;99.90
20380;DHT22;10349;48.666;8.948;2023-04-01T15:33:03;9.60;99.90
20380;DHT22;10349;48.666;8.948;2023-04-01T15:35:52;9.60;99.90
20380;DHT22;10349;48.666;8.948;2023-04-01T15:44:01;9.60;99.90
20380;DHT22;10349;48.666;8.948;2023-04-01T15:46:54;9.60;99.90
20380;DHT22;10349;48.666;8.948;2023-04-01T15:49:43;9.40;99.90
20380;DHT22;10349;48.666;8.948;2023-04-01T15:52:17;9.30;99.90
20380;DHT22;10349;48.666;8.948;2023-04-01T15:57:56;9.10;99.90
20380;DHT22;10349;48.666;8.948;2023-04-01T16:00:53;9.10;99.90
20380;DHT22;10349;48.666;8.948;2023-04-01T16:03:39;9.10;99.90
20380;DHT22;10349;48.666;8.948;2023-04-01T16:06:36;9.00;99.90
20380;DHT22;10349;48.666;8.948;2023-04-01T16:12:04;9.00;99.90
20380;DHT22;10349;48.666;8.948;2023-04-01T16:20:21;9.10;99.90
20380;DHT22;10349;48.666;8.948;2023-04-01T16:22:58;9.10;99.90
20380;DHT22;10349;48.666;8.948;2023-04-01T16:25:49;9.10;99.90
20380;DHT22;10349;48.666;8.948;2023-04-01T16:28:38;9.10;99.90
20380;DHT22;10349;48.666;8.948;2023-04-01T16:34:27;9.20;99.90
20380;DHT22;10349;48.666;8.948;2023-04-01T16:37:12;9.30;99.90
20380;DHT22;10349;48.666;8.948;2023-04-01T16:44:57;9.10;99.90
20380;DHT22;10349;48.666;8.948;2023-04-01T16:47:31;9.20;99.90
20380;DHT22;10349;48.666;8.948;2023-04-01T16:50:13;9.20;99.90
20380;DHT22;10349;48.666;8.948;2023-04-01T16:53:01;9.10;99.90
20380;DHT22;10349;48.666;8.948;2023-04-01T16:56:27;9.20;99.90
20380;DHT22;10349;48.666;8.948;2023-04-01T17:11:57;9.00;99.90
20380;DHT22;10349;48.666;8.948;2023-04-01T17:14:36;8.90;99.90
20380;DHT22;10349;48.666;8.948;2023-04-01T17:17:36;8.90;99.90
20380;DHT22;10349;48.666;8.948;2023-04-01T17:34:03;8.70;99.90
20380;DHT22;10349;48.666;8.948;2023-04-01T17:42:39;8.70;99.90
20380;DHT22;10349;48.666;8.948;2023-04-01T17:45:21;8.70;99.90
20380;DHT22;10349;48.666;8.948;2023-04-01T17:48:18;8.70;99.90
20380;DHT22;10349;48.666;8.948;2023-04-01T17:53:54;8.60;99.90
20380;DHT22;10349;48.666;8.948;2023-04-01T17:56:29;8.60;99.90
20380;DHT22;10349;48.666;8.948;2023-04-01T17:59:33;8.60;99.90
20380;DHT22;10349;48.666;8.948;2023-04-01T18:05:45;8.60;99.90
20380;DHT22;10349;48.666;8.948;2023-04-01T18:10:51;8.40;99.90
20380;DHT22;10349;48.666;8.948;2023-04-01T18:13:29;8.20;99.90
20380;DHT22;10349;48.666;8.948;2023-04-01T18:16:09;8.10;99.90
20380;DHT22;10349;48.666;8.948;2023-04-01T18:19:06;8.00;99.90
20380;DHT22;10349;48.666;8.948;2023-04-01T18:21:39;7.90;99.90
20380;DHT22;10349;48.666;8.948;2023-04-01T18:24:16;7.80;99.90
20380;DHT22;10349;48.666;8.948;2023-04-01T18:26:59;7.60;99.90
20380;DHT22;10349;48.666;8.948;2023-04-01T18:37:30;7.40;99.90
20380;DHT22;10349;48.666;8.948;2023-04-01T18:40:10;7.40;99.90
20380;DHT22;10349;48.666;8.948;2023-04-01T18:42:44;7.30;99.90
20380;DHT22;10349;48.666;8.948;2023-04-01T18:45:27;7.30;99.90
20380;DHT22;10349;48.666;8.948;2023-04-01T18:50:52;7.20;99.90
20380;DHT22;10349;48.666;8.948;2023-04-01T18:53:45;7.10;99.90
20380;DHT22;10349;48.666;8.948;2023-04-01T19:01:38;7.10;99.90
20380;DHT22;10349;48.666;8.948;2023-04-01T19:04:23;7.00;99.90
20380;DHT22;10349;48.666;8.948;2023-04-01T19:06:57;6.90;99.90
20380;DHT22;10349;48.666;8.948;2023-04-01T19:09:31;6.90;99.90
20380;DHT22;10349;48.666;8.948;2023-04-01T19:12:04;6.80;99.90
20380;DHT22;10349;48.666;8.948;2023-04-01T19:20:37;6.60;99.90
20380;DHT22;10349;48.666;8.948;2023-04-01T19:25:43;6.60;99.90
20380;DHT22;10349;48.666;8.948;2023-04-01T19:31:36;6.60;99.90
20380;DHT22;10349;48.666;8.948;2023-04-01T19:34:36;6.50;99.90
20380;DHT22;10349;48.666;8.948;2023-04-01T19:45:32;6.40;99.90
20380;DHT22;10349;48.666;8.948;2023-04-01T19:48:05;6.40;99.90
20380;DHT22;10349;48.666;8.948;2023-04-01T19:50:42;6.40;99.90
20380;DHT22;10349;48.666;8.948;2023-04-01T19:53:28;6.30;99.90
20380;DHT22;10349;48.666;8.948;2023-04-01T20:01:44;6.20;99.90
20380;DHT22;10349;48.666;8.948;2023-04-01T20:04:20;6.20;99.90
20380;DHT22;10349;48.666;8.948;2023-04-01T20:07:08;6.20;99.90
20380;DHT22;10349;48.666;8.948;2023-04-01T20:15:00;6.10;99.90
20380;DHT22;10349;48.666;8.948;2023-04-01T20:17:44;6.10;99.90
20380;DHT22;10349;48.666;8.948;2023-04-01T20:25:25;6.10;99.90
20380;DHT22;10349;48.666;8.948;2023-04-01T20:39:02;6.30;99.90
20380;DHT22;10349;48.666;8.948;2023-04-01T20:47:14;6.40;99.90
20380;DHT22;10349;48.666;8.948;2023-04-01T21:01:44;6.30;99.90
20380;DHT22;10349;48.666;8.948;2023-04-01T21:06:20;6.40;99.90
20380;DHT22;10349;48.666;8.948;2023-04-01T21:09:16;6.30;99.90
20380;DHT22;10349;48.666;8.948;2023-04-01T21:12:05;6.40;99.90
20380;DHT22;10349;48.666;8.948;2023-04-01T21:26:11;6.50;99.90
20380;DHT22;10349;48.666;8.948;2023-04-01T21:29:08;6.50;99.90
20380;DHT22;10349;48.666;8.948;2023-04-01T21:35:00;6.60;99.90
20380;DHT22;10349;48.666;8.948;2023-04-01T21:48:52;6.80;99.90
20380;DHT22;10349;48.666;8.948;2023-04-01T22:05:57;6.80;99.90
20380;DHT22;10349;48.666;8.948;2023-04-01T22:13:54;6.70;99.90
20380;DHT22;10349;48.666;8.948;2023-04-01T22:16:47;6.70;99.90
20380;DHT22;10349;48.666;8.948;2023-04-01T22:19:28;6.60;99.90
20380;DHT22;10349;48.666;8.948;2023-04-01T22:22:18;6.60;99.90
20380;DHT22;10349;48.666;8.948;2023-04-01T22:24:56;6.60;99.90
20380;DHT22;10349;48.666;8.948;2023-04-01T22:30:24;6.60;99.90
20380;DHT22;10349;48.666;8.948;2023-04-01T22:35:56;6.50;99.90
20380;DHT22;10349;48.666;8.948;2023-04-01T22:41:24;6.40;99.90
20380;DHT22;10349;48.666;8.948;2023-04-01T22:43:57;6.40;99.90
20380;DHT22;10349;48.666;8.948;2023-04-01T22:49:50;6.30;99.90
20380;DHT22;10349;48.666;8.948;2023-04-01T22:52:22;6.20;99.90
20380;DHT22;10349;48.666;8.948;2023-04-01T22:55:00;6.10;99.90
20380;DHT22;10349;48.666;8.948;2023-04-01T23:00:20;6.00;99.90
20380;DHT22;10349;48.666;8.948;2023-04-01T23:05:40;5.90;99.90
20380;DHT22;10349;48.666;8.948;2023-04-01T23:10:57;5.80;99.90
20380;DHT22;10349;48.666;8.948;2023-04-01T23:13:43;5.80;99.90
20380;DHT22;10349;48.666;8.948;2023-04-01T23:16:11;5.80;99.90
20380;DHT22;10349;48.666;8.948;2023-04-01T23:18:55;5.70;99.90
20380;DHT22;10349;48.666;8.948;2023-04-01T23:21:38;5.70;99.90
20380;DHT22;10349;48.666;8.948;2023-04-01T23:26:56;5.60;99.90
20380;DHT22;10349;48.666;8.948;2023-04-01T23:29:24;5.50;99.90
20380;DHT22;10349;48.666;8.948;2023-04-01T23:34:30;5.50;99.90
20380;DHT22;10349;48.666;8.948;2023-04-01T23:37:07;5.50;99.90
20380;DHT22;10349;48.666;8.948;2023-04-01T23:39:41;5.50;99.90
20380;DHT22;10349;48.666;8.948;2023-04-01T23:42:22;5.50;99.90
20380;DHT22;10349;48.666;8.948;2023-04-01T23:44:51;5.50;99.90
20380;DHT22;10349;48.666;8.948;2023-04-01T23:47:25;5.50;99.90
20380;DHT22;10349;48.666;8.948;2023-04-01T23:49:55;5.50;99.90
20380;DHT22;10349;48.666;8.948;2023-04-01T23:52:25;5.40;99.90
20380;DHT22;10349;48.666;8.948;2023-04-01T23:55:11;5.50;99.90
20380;DHT22;10349;48.666;8.948;2023-04-01T23:57:38;5.50;99.90
